CST,Max TemperatureF,Mean TemperatureF,Min TemperatureF,Max Dew PointF,MeanDew PointF,Min DewpointF,Max Humidity, Mean Humidity, Min Humidity, Max Sea Level PressureIn, Mean Sea Level PressureIn, Min Sea Level PressureIn, Max VisibilityMiles, Mean VisibilityMiles, Min VisibilityMiles, Max Wind SpeedMPH, Mean Wind SpeedMPH, Max Gust SpeedMPH,PrecipitationIn, CloudCover, Events, WindDirDegrees
2014-1-1,66,50,34,50,39,27,83,66,52,30.22,30.10,29.98,10,10,4,17,6,33,0.00,1,,211
2014-1-2,50,40,30,33,23,19,72,54,32,30.48,30.39,30.16,10,10,8,23,12,33,0.00,0,,359
2014-1-3,54,40,26,35,20,14,76,49,21,30.45,30.31,30.09,10,10,10,13,5,24,0.00,0,,170
2014-1-4,68,55,42,48,44,37,90,69,43,30.06,29.92,29.78,10,10,10,20,10,28,0.00,1,,186
2014-1-5,55,42,28,48,25,11,80,56,38,30.47,30.14,29.77,10,10,4,24,13,34,0.00,0,,337
2014-1-6,32,24,17,13,6,1,66,47,31,30.77,30.65,30.50,10,10,10,12,8,23,0.00,0,,9
2014-1-7,45,32,19,18,9,5,71,41,19,30.61,30.47,30.32,10,10,7,15,6,24,0.00,3,,180
2014-1-8,53,45,37,51,44,26,97,92,60,30.29,30.17,30.10,10,6,2,14,7,20,0.00,8,,167
2014-1-9,68,60,52,59,53,50,97,87,63,30.17,30.10,29.97,10,7,3,10,5,17,0.00,8,,184
2014-1-10,72,62,48,59,56,45,93,81,57,29.99,29.88,29.75,10,9,4,17,10,25,0.00,5,,197
2014-1-11,70,56,43,47,32,16,86,50,14,30.17,30.07,29.87,10,10,6,13,6,,0.00,0,,311
2014-1-12,77,60,42,57,43,30,63,52,38,30.10,29.98,29.86,10,10,8,22,6,33,0.00,1,,182
2014-1-13,77,59,39,57,33,14,97,47,9,30.15,30.02,29.85,10,9,5,18,8,29,0.00,1,,299
2014-1-14,81,58,34,27,23,19,64,42,12,30.38,30.15,30.04,10,10,5,21,6,30,0.00,0,,329
2014-1-15,59,48,36,26,21,16,60,39,22,30.46,30.33,30.15,10,10,10,10,6,18,0.00,0,,312
2014-1-16,68,52,35,31,26,22,67,41,21,30.23,30.13,30.06,10,10,10,10,4,,0.00,0,,306
2014-1-17,59,49,37,31,18,13,54,32,18,30.38,30.30,30.23,10,8,2,12,5,21,0.00,2,,20
2014-1-18,66,50,33,39,28,21,76,55,34,30.25,30.19,30.10,10,7,1,17,2,24,0.00,0,,209
2014-1-19,68,55,42,37,27,19,76,41,16,30.35,30.22,30.10,10,10,10,9,4,,0.00,0,,246
2014-1-20,79,59,39,46,31,22,77,40,13,30.19,30.01,29.86,10,10,9,16,6,34,0.00,0,,272
2014-1-21,57,46,34,25,21,18,64,37,22,30.44,30.32,30.23,10,10,10,14,9,22,0.00,0,,343
2014-1-22,66,50,33,34,23,20,64,39,17,30.21,30.09,30.00,10,10,10,13,3,,0.00,0,,177
2014-1-23,52,38,23,42,24,16,82,68,49,30.73,30.45,30.05,10,8,2,22,11,31,0.01,7,Rain,21
2014-1-24,37,29,21,19,14,7,86,60,38,30.74,30.61,30.37,10,9,5,13,8,23,0.01,5,Rain,326
2014-1-25,64,44,25,36,25,18,81,51,21,30.35,30.17,30.01,10,10,10,10,4,,0.00,0,,279
2014-1-26,80,60,39,37,32,23,73,42,18,29.99,29.82,29.67,10,10,10,17,4,24,0.00,1,,243
2014-1-27,48,39,30,29,15,3,55,36,26,30.28,30.10,29.82,10,10,10,22,8,34,0.00,1,Rain,15
2014-1-28,37,30,23,19,10,6,75,47,28,30.48,30.38,30.26,10,10,6,15,10,22,0.01,4,Rain,3
2014-1-29,45,34,24,15,13,9,69,45,27,30.48,30.37,30.22,10,10,10,12,3,20,0.00,0,,160
2014-1-30,59,44,28,47,34,15,83,65,50,30.20,30.01,29.88,10,10,10,23,12,33,0.00,3,,184
2014-1-31,73,62,51,58,51,48,96,77,40,29.95,29.86,29.79,10,9,7,18,11,30,0.00,3,,177